Time;durP1;ratioP1;P1;durP2;ratioP2;P2;SDS_P1;SDS_P2;PMS_P1;PMS_P2;Temp;Humidity;BMP_temperature;BMP_pressure;BME280_temperature;BME280_humidity;BME280_pressure;Samples;Min_cycle;Max_cycle;Signal;HPM_P1;HPM_P2
2022/09/29 00:01:22;;;;;;;4.20;2.10;;;;;;;;;;106688;1295;33555;-35
2022/09/29 00:03:53;;;;;;;4.00;1.90;;;;;;;;;;106501;1297;34375;-35
2022/09/29 00:06:22;;;;;;;3.90;2.00;;;;;;;;;;106237;1302;33664;-35
2022/09/29 00:08:51;;;;;;;4.10;1.70;;;;;;;;;;106514;1298;33697;-35
2022/09/29 00:11:20;;;;;;;3.30;1.70;;;;;;;;;;106425;1297;33745;-35
2022/09/29 00:13:49;;;;;;;4.10;1.90;;;;;;;;;;106501;1297;34379;-35
2022/09/29 00:16:18;;;;;;;4.10;1.90;;;;;;;;;;106448;1298;34212;-34
2022/09/29 00:18:47;;;;;;;3.90;1.90;;;;;;;;;;106638;1295;34619;-34
2022/09/29 00:21:18;;;;;;;3.80;2.00;;;;;;;;;;106498;1298;34082;-34
2022/09/29 00:23:48;;;;;;;4.40;1.90;;;;;;;;;;106649;1299;33486;-34
2022/09/29 00:26:19;;;;;;;3.60;1.60;;;;;;;;;;106404;1298;34257;-35
2022/09/29 00:28:51;;;;;;;3.70;2.00;;;;;;;;;;106523;1298;33142;-35
2022/09/29 00:31:23;;;;;;;3.70;2.00;;;;;;;;;;106488;1297;34388;-34
2022/09/29 00:33:52;;;;;;;4.50;1.90;;;;;;;;;;106367;1298;34163;-35
2022/09/29 00:36:24;;;;;;;4.40;2.10;;;;;;;;;;106525;1295;34156;-35
2022/09/29 00:38:53;;;;;;;4.20;1.90;;;;;;;;;;106477;1297;33888;-34
2022/09/29 00:41:23;;;;;;;4.10;1.90;;;;;;;;;;106645;1295;34583;-35
2022/09/29 00:43:54;;;;;;;3.90;2.10;;;;;;;;;;106617;1300;33143;-35
2022/09/29 00:46:30;;;;;;;3.80;1.90;;;;;;;;;;106382;1298;34266;-35
2022/09/29 00:49:02;;;;;;;4.30;2.00;;;;;;;;;;106502;1301;33997;-35
2022/09/29 00:51:32;;;;;;;3.70;1.80;;;;;;;;;;106468;1296;34098;-35
2022/09/29 00:54:01;;;;;;;4.00;2.20;;;;;;;;;;106516;1300;33586;-35
2022/09/29 00:56:31;;;;;;;4.70;2.10;;;;;;;;;;106609;1296;33611;-34
2022/09/29 00:59:01;;;;;;;4.40;2.00;;;;;;;;;;106665;1295;34067;-35
2022/09/29 01:01:31;;;;;;;4.00;2.00;;;;;;;;;;106526;1298;34271;-34
2022/09/29 01:04:03;;;;;;;3.90;2.30;;;;;;;;;;106668;1296;34341;-35
2022/09/29 01:06:34;;;;;;;3.90;2.20;;;;;;;;;;106527;1295;34088;-35
2022/09/29 01:09:04;;;;;;;3.90;2.00;;;;;;;;;;106521;1299;33987;-35
2022/09/29 01:11:34;;;;;;;3.90;2.00;;;;;;;;;;106524;1301;33608;-35
2022/09/29 01:14:05;;;;;;;5.80;2.40;;;;;;;;;;106535;1300;33426;-35
2022/09/29 01:16:36;;;;;;;4.60;2.40;;;;;;;;;;106563;1298;34152;-34
2022/09/29 01:19:07;;;;;;;3.80;2.10;;;;;;;;;;106686;1295;34089;-35
2022/09/29 01:21:39;;;;;;;4.00;2.10;;;;;;;;;;106501;1298;33789;-35
2022/09/29 01:24:23;;;;;;;4.20;2.20;;;;;;;;;;106657;1303;33680;-35
2022/09/29 01:27:00;;;;;;;4.10;2.50;;;;;;;;;;106524;1295;34573;-35
2022/09/29 01:29:41;;;;;;;3.80;2.00;;;;;;;;;;106368;1298;34338;-35
2022/09/29 01:32:13;;;;;;;4.50;2.20;;;;;;;;;;106515;1296;34014;-35
2022/09/29 01:34:46;;;;;;;4.00;2.10;;;;;;;;;;106484;1298;33742;-35
2022/09/29 01:37:20;;;;;;;4.00;2.20;;;;;;;;;;106600;1295;33145;-34
2022/09/29 01:39:53;;;;;;;4.40;2.30;;;;;;;;;;106694;1295;34198;-35
2022/09/29 01:42:27;;;;;;;4.50;2.30;;;;;;;;;;106503;1301;33763;-35
2022/09/29 01:45:00;;;;;;;4.90;2.70;;;;;;;;;;106684;1300;33676;-35
2022/09/29 01:47:30;;;;;;;3.90;2.20;;;;;;;;;;106559;1297;33178;-35
2022/09/29 01:50:02;;;;;;;5.50;2.50;;;;;;;;;;106505;1298;34511;-35
2022/09/29 01:52:33;;;;;;;4.30;2.20;;;;;;;;;;106501;1301;33098;-35
2022/09/29 01:55:05;;;;;;;4.30;2.40;;;;;;;;;;106407;1298;34237;-35
2022/09/29 01:57:37;;;;;;;4.10;2.10;;;;;;;;;;106541;1299;33463;-35
2022/09/29 02:00:10;;;;;;;4.10;2.20;;;;;;;;;;106514;1297;34650;-35
2022/09/29 02:02:41;;;;;;;4.20;2.20;;;;;;;;;;106670;1299;33553;-35
2022/09/29 02:05:13;;;;;;;4.40;2.30;;;;;;;;;;106654;1295;34554;-35
2022/09/29 02:07:44;;;;;;;4.20;2.30;;;;;;;;;;106414;1298;34347;-35
2022/09/29 02:10:17;;;;;;;4.40;2.40;;;;;;;;;;106499;1300;33991;-35
2022/09/29 02:12:47;;;;;;;4.20;2.20;;;;;;;;;;106405;1301;33509;-35
2022/09/29 02:15:21;;;;;;;4.10;2.30;;;;;;;;;;106492;1297;33064;-34
2022/09/29 02:17:50;;;;;;;4.20;2.30;;;;;;;;;;106569;1298;34095;-35
2022/09/29 02:20:21;;;;;;;4.20;2.30;;;;;;;;;;106656;1295;34179;-34
2022/09/29 02:22:50;;;;;;;4.30;2.30;;;;;;;;;;106521;1298;34307;-35
2022/09/29 02:25:20;;;;;;;4.10;2.30;;;;;;;;;;106650;1295;34612;-35
2022/09/29 02:27:49;;;;;;;4.70;2.70;;;;;;;;;;106449;1298;34269;-34
2022/09/29 02:30:19;;;;;;;4.60;2.50;;;;;;;;;;106495;1297;33425;-34
2022/09/29 02:32:48;;;;;;;4.10;2.40;;;;;;;;;;106424;1297;33194;-35
2022/09/29 02:35:17;;;;;;;4.10;2.20;;;;;;;;;;106431;1298;34391;-35
2022/09/29 02:37:54;;;;;;;4.30;2.50;;;;;;;;;;106508;1301;36604;-35
2022/09/29 02:40:28;;;;;;;5.20;2.40;;;;;;;;;;106646;1295;34199;-35
2022/09/29 02:43:05;;;;;;;4.30;2.30;;;;;;;;;;106522;1297;33472;-35
2022/09/29 02:45:41;;;;;;;4.00;2.50;;;;;;;;;;106656;1295;34589;-35
2022/09/29 02:48:19;;;;;;;4.30;2.50;;;;;;;;;;106485;1298;34317;-35
2022/09/29 02:50:57;;;;;;;4.00;2.40;;;;;;;;;;106505;1298;33553;-35
2022/09/29 02:53:34;;;;;;;4.60;2.60;;;;;;;;;;106507;1298;33931;-35
2022/09/29 02:56:08;;;;;;;4.80;2.50;;;;;;;;;;106492;1298;34203;-35
2022/09/29 02:58:40;;;;;;;4.60;2.50;;;;;;;;;;106585;1298;34270;-35
2022/09/29 03:01:09;;;;;;;4.50;2.50;;;;;;;;;;106656;1298;34137;-35
2022/09/29 03:03:38;;;;;;;4.10;2.50;;;;;;;;;;106494;1298;33791;-35
2022/09/29 03:06:08;;;;;;;4.30;2.40;;;;;;;;;;106635;1295;34357;-35
2022/09/29 03:08:37;;;;;;;4.30;2.60;;;;;;;;;;106430;1297;33662;-34
2022/09/29 03:11:06;;;;;;;4.50;2.40;;;;;;;;;;106512;1300;33665;-35
2022/09/29 03:13:35;;;;;;;4.50;2.50;;;;;;;;;;106434;1298;34243;-35
2022/09/29 03:16:04;;;;;;;4.60;2.40;;;;;;;;;;106531;1299;34229;-35
2022/09/29 03:18:33;;;;;;;4.80;2.70;;;;;;;;;;106544;1298;34230;-35
2022/09/29 03:21:02;;;;;;;5.20;2.70;;;;;;;;;;106660;1295;34066;-35
2022/09/29 03:23:31;;;;;;;4.90;2.80;;;;;;;;;;106642;1301;33731;-35
2022/09/29 03:26:00;;;;;;;5.10;2.80;;;;;;;;;;106519;1300;34264;-35
2022/09/29 03:28:29;;;;;;;4.50;2.90;;;;;;;;;;106560;1295;34133;-34
2022/09/29 03:31:05;;;;;;;4.90;2.70;;;;;;;;;;106464;1296;34520;-35
2022/09/29 03:33:35;;;;;;;4.70;2.60;;;;;;;;;;106524;1298;34483;-35
2022/09/29 03:36:08;;;;;;;4.70;2.80;;;;;;;;;;106505;1298;34106;-34
2022/09/29 03:38:37;;;;;;;4.50;2.60;;;;;;;;;;106439;1300;33677;-35
2022/09/29 03:41:06;;;;;;;5.00;2.90;;;;;;;;;;106626;1301;33611;-35
2022/09/29 03:43:35;;;;;;;4.20;2.60;;;;;;;;;;106492;1296;33516;-35
2022/09/29 03:46:05;;;;;;;4.60;2.60;;;;;;;;;;106606;1300;33456;-35
2022/09/29 03:48:34;;;;;;;4.40;2.50;;;;;;;;;;106555;1295;34258;-35
2022/09/29 03:51:04;;;;;;;4.20;2.50;;;;;;;;;;106418;1298;33740;-35
2022/09/29 03:53:35;;;;;;;5.40;2.90;;;;;;;;;;106457;1300;33710;-34
2022/09/29 03:56:05;;;;;;;5.40;2.50;;;;;;;;;;106471;1299;34223;-34
2022/09/29 03:58:34;;;;;;;4.30;2.40;;;;;;;;;;106411;1298;34020;-34
2022/09/29 04:01:03;;;;;;;5.20;2.80;;;;;;;;;;106428;1298;41732;-34
2022/09/29 04:03:33;;;;;;;4.50;2.70;;;;;;;;;;106624;1301;33393;-34
2022/09/29 04:06:02;;;;;;;4.40;2.60;;;;;;;;;;106459;1303;33486;-34
2022/09/29 04:08:31;;;;;;;4.40;2.50;;;;;;;;;;106608;1299;33082;-34
2022/09/29 04:11:00;;;;;;;4.10;2.30;;;;;;;;;;106367;1298;34243;-34
2022/09/29 04:13:29;;;;;;;4.90;2.60;;;;;;;;;;106472;1301;33627;-34
2022/09/29 04:15:59;;;;;;;4.20;2.60;;;;;;;;;;106456;1299;34197;-34
2022/09/29 04:18:29;;;;;;;3.80;2.30;;;;;;;;;;106457;1301;34253;-34
2022/09/29 04:20:59;;;;;;;3.90;2.60;;;;;;;;;;106476;1301;33412;-34
2022/09/29 04:23:29;;;;;;;4.00;2.20;;;;;;;;;;106400;1298;34057;-34
2022/09/29 04:26:00;;;;;;;4.30;2.60;;;;;;;;;;106540;1295;34293;-34
2022/09/29 04:28:30;;;;;;;6.20;2.70;;;;;;;;;;106536;1301;33076;-34
2022/09/29 04:30:59;;;;;;;4.20;2.40;;;;;;;;;;106263;1297;33465;-34
2022/09/29 04:33:30;;;;;;;5.00;2.90;;;;;;;;;;106441;1298;34125;-34
2022/09/29 04:35:59;;;;;;;4.70;2.40;;;;;;;;;;106340;1298;34513;-34
2022/09/29 04:38:28;;;;;;;4.60;2.30;;;;;;;;;;106440;1298;34132;-34
2022/09/29 04:40:57;;;;;;;5.30;2.50;;;;;;;;;;106374;1301;34250;-34
2022/09/29 04:43:26;;;;;;;5.40;2.30;;;;;;;;;;106548;1300;33437;-34
2022/09/29 04:46:02;;;;;;;5.10;2.50;;;;;;;;;;106459;1298;33534;-34
2022/09/29 04:48:31;;;;;;;4.40;2.50;;;;;;;;;;106618;1295;33970;-34
2022/09/29 04:51:00;;;;;;;4.50;2.40;;;;;;;;;;106373;1298;34274;-34
2022/09/29 04:53:32;;;;;;;4.80;2.40;;;;;;;;;;106490;1298;34178;-34
2022/09/29 04:56:06;;;;;;;4.60;2.30;;;;;;;;;;106462;1298;34637;-34
2022/09/29 04:58:35;;;;;;;4.60;2.30;;;;;;;;;;106476;1297;34111;-34
2022/09/29 05:01:09;;;;;;;4.30;2.20;;;;;;;;;;106510;1303;33887;-34
2022/09/29 05:03:38;;;;;;;5.90;2.40;;;;;;;;;;106512;1298;33552;-34
2022/09/29 05:06:08;;;;;;;4.00;2.30;;;;;;;;;;106615;1300;33600;-34
2022/09/29 05:08:37;;;;;;;4.90;2.50;;;;;;;;;;106638;1301;33658;-34
2022/09/29 05:11:07;;;;;;;4.20;2.20;;;;;;;;;;106517;1300;33076;-34
2022/09/29 05:13:37;;;;;;;4.70;2.30;;;;;;;;;;106502;1297;33557;-34
2022/09/29 05:16:06;;;;;;;4.40;2.40;;;;;;;;;;106499;1298;34097;-34
2022/09/29 05:18:35;;;;;;;4.40;2.40;;;;;;;;;;106524;1298;33746;-34
2022/09/29 05:21:06;;;;;;;3.90;2.10;;;;;;;;;;106362;1298;34095;-33
2022/09/29 05:23:35;;;;;;;4.10;2.20;;;;;;;;;;106650;1295;34568;-33
2022/09/29 05:26:07;;;;;;;4.90;2.30;;;;;;;;;;106516;1301;33635;-33
2022/09/29 05:28:38;;;;;;;4.80;2.30;;;;;;;;;;106635;1295;34439;-33
2022/09/29 05:31:07;;;;;;;4.40;2.20;;;;;;;;;;106582;1300;34128;-33
2022/09/29 05:33:37;;;;;;;4.20;2.30;;;;;;;;;;106512;1299;34119;-33
2022/09/29 05:36:07;;;;;;;4.90;2.30;;;;;;;;;;106513;1301;34109;-33
2022/09/29 05:38:37;;;;;;;4.40;2.20;;;;;;;;;;106551;1301;33642;-33
2022/09/29 05:41:07;;;;;;;5.00;2.40;;;;;;;;;;106497;1300;34126;-33
2022/09/29 05:43:36;;;;;;;5.20;2.50;;;;;;;;;;106510;1298;34577;-34
2022/09/29 05:46:07;;;;;;;3.90;2.30;;;;;;;;;;106614;1295;33483;-32
2022/09/29 05:48:37;;;;;;;5.10;2.40;;;;;;;;;;106505;1299;34050;-34
2022/09/29 05:51:09;;;;;;;5.30;2.30;;;;;;;;;;106562;1297;33455;-34
2022/09/29 05:53:39;;;;;;;4.70;2.30;;;;;;;;;;106427;1301;34062;-35
2022/09/29 05:56:09;;;;;;;4.00;2.30;;;;;;;;;;106521;1297;34624;-35
2022/09/29 05:58:39;;;;;;;3.80;2.20;;;;;;;;;;106510;1297;33618;-35
2022/09/29 06:01:11;;;;;;;4.50;2.30;;;;;;;;;;106478;1298;34654;-35
2022/09/29 06:03:40;;;;;;;3.80;2.30;;;;;;;;;;106511;1301;34032;-35
2022/09/29 06:06:10;;;;;;;4.40;2.40;;;;;;;;;;106523;1302;151966;-35
2022/09/29 06:08:39;;;;;;;3.60;2.10;;;;;;;;;;106513;1301;33611;-35
2022/09/29 06:11:09;;;;;;;4.40;2.20;;;;;;;;;;106625;1295;34399;-35
2022/09/29 06:13:39;;;;;;;4.00;2.20;;;;;;;;;;106495;1300;33589;-32
2022/09/29 06:16:08;;;;;;;4.50;2.30;;;;;;;;;;106492;1296;33470;-32
2022/09/29 06:18:37;;;;;;;3.90;2.20;;;;;;;;;;106432;1305;33601;-32
2022/09/29 06:21:10;;;;;;;4.50;2.50;;;;;;;;;;106499;1298;33094;-32
2022/09/29 06:23:39;;;;;;;4.50;2.50;;;;;;;;;;106479;1295;36168;-33
2022/09/29 06:26:09;;;;;;;3.70;2.30;;;;;;;;;;106619;1301;33677;-33
2022/09/29 06:28:38;;;;;;;3.90;2.20;;;;;;;;;;106621;1301;33572;-33
2022/09/29 06:31:08;;;;;;;4.10;2.60;;;;;;;;;;106663;1298;33610;-33
2022/09/29 06:33:37;;;;;;;4.50;2.20;;;;;;;;;;106506;1301;33624;-33
2022/09/29 06:38:56;;;;;;;4.40;2.40;;;;;;;;;;106511;1298;34291;-33
2022/09/29 06:41:28;;;;;;;3.90;2.20;;;;;;;;;;106523;1298;34287;-33
2022/09/29 06:43:57;;;;;;;4.10;2.20;;;;;;;;;;106567;1300;33791;-34
2022/09/29 06:46:26;;;;;;;3.90;2.40;;;;;;;;;;106607;1298;34371;-33
2022/09/29 06:48:55;;;;;;;4.20;2.50;;;;;;;;;;106466;1298;33220;-33
2022/09/29 06:51:25;;;;;;;4.50;2.60;;;;;;;;;;106593;1301;34184;-31
2022/09/29 06:53:54;;;;;;;5.00;2.70;;;;;;;;;;106496;1296;33098;-33
2022/09/29 06:56:23;;;;;;;4.30;2.50;;;;;;;;;;106441;1301;34006;-34
2022/09/29 06:58:52;;;;;;;5.90;2.90;;;;;;;;;;106495;1302;33492;-33
2022/09/29 07:01:21;;;;;;;4.90;2.60;;;;;;;;;;106443;1298;33440;-34
2022/09/29 07:03:50;;;;;;;6.20;3.00;;;;;;;;;;106514;1295;34160;-34
2022/09/29 07:06:19;;;;;;;5.60;3.00;;;;;;;;;;106594;1295;34597;-34
2022/09/29 07:08:53;;;;;;;6.90;3.30;;;;;;;;;;106506;1301;33628;-34
2022/09/29 07:11:22;;;;;;;6.80;3.50;;;;;;;;;;106579;1300;33287;-34
2022/09/29 07:13:51;;;;;;;6.30;3.30;;;;;;;;;;106426;1303;34148;-34
2022/09/29 07:16:22;;;;;;;5.70;3.20;;;;;;;;;;106461;1300;33716;-34
2022/09/29 07:18:52;;;;;;;6.30;3.30;;;;;;;;;;106302;1298;34825;-34
2022/09/29 07:21:21;;;;;;;6.70;3.30;;;;;;;;;;106434;1298;34620;-34
2022/09/29 07:23:50;;;;;;;6.20;3.00;;;;;;;;;;106421;1299;34182;-34
2022/09/29 07:26:19;;;;;;;6.10;3.20;;;;;;;;;;106502;1295;33181;-34
2022/09/29 07:28:49;;;;;;;7.70;3.10;;;;;;;;;;106458;1303;33527;-34
2022/09/29 07:31:19;;;;;;;5.20;2.90;;;;;;;;;;106532;1300;33603;-34
2022/09/29 07:33:49;;;;;;;5.10;2.90;;;;;;;;;;106322;1301;33978;-34
2022/09/29 07:36:19;;;;;;;5.90;3.10;;;;;;;;;;106489;1297;34154;-34
2022/09/29 07:38:49;;;;;;;5.60;3.20;;;;;;;;;;106424;1300;34652;-34
2022/09/29 07:41:19;;;;;;;4.90;3.00;;;;;;;;;;106395;1303;34114;-34
2022/09/29 07:43:48;;;;;;;5.20;3.20;;;;;;;;;;106416;1303;33748;-37
2022/09/29 07:46:17;;;;;;;6.50;3.30;;;;;;;;;;106537;1296;33576;-37
2022/09/29 07:48:46;;;;;;;6.70;3.20;;;;;;;;;;106486;1295;33592;-36
2022/09/29 07:51:17;;;;;;;5.20;3.20;;;;;;;;;;106465;1297;34518;-36
2022/09/29 07:53:46;;;;;;;5.80;2.90;;;;;;;;;;106402;1297;34590;-38
2022/09/29 07:56:17;;;;;;;5.40;3.00;;;;;;;;;;106464;1302;34145;-39
2022/09/29 07:58:48;;;;;;;5.70;3.10;;;;;;;;;;106483;1296;34124;-39
2022/09/29 08:01:17;;;;;;;5.10;2.90;;;;;;;;;;106481;1303;33659;-37
2022/09/29 08:03:49;;;;;;;6.00;3.10;;;;;;;;;;106447;1303;33727;-35
2022/09/29 08:06:19;;;;;;;4.60;2.70;;;;;;;;;;106593;1300;34230;-35
2022/09/29 08:08:51;;;;;;;4.30;2.70;;;;;;;;;;106520;1300;34381;-37
2022/09/29 08:11:21;;;;;;;5.20;2.90;;;;;;;;;;106542;1295;34620;-33
2022/09/29 08:13:53;;;;;;;4.40;2.60;;;;;;;;;;106522;1295;34149;-37
2022/09/29 08:16:22;;;;;;;4.50;2.70;;;;;;;;;;106444;1296;33897;-36
2022/09/29 08:18:51;;;;;;;4.80;2.50;;;;;;;;;;106206;1297;34390;-34
2022/09/29 08:21:21;;;;;;;5.00;2.60;;;;;;;;;;106407;1304;34092;-35
2022/09/29 08:23:50;;;;;;;4.70;2.70;;;;;;;;;;106399;1301;34386;-34
2022/09/29 08:26:20;;;;;;;4.50;2.50;;;;;;;;;;106449;1303;45088;-35
2022/09/29 08:28:49;;;;;;;4.00;2.50;;;;;;;;;;106427;1298;33617;-35
2022/09/29 08:31:20;;;;;;;5.10;2.50;;;;;;;;;;106452;1299;33482;-36
2022/09/29 08:33:50;;;;;;;6.10;2.90;;;;;;;;;;106477;1303;33430;-36
2022/09/29 08:36:19;;;;;;;4.00;2.60;;;;;;;;;;106395;1297;34316;-36
2022/09/29 08:38:50;;;;;;;4.30;2.60;;;;;;;;;;106424;1300;33586;-36
2022/09/29 08:41:26;;;;;;;4.30;2.50;;;;;;;;;;106465;1298;33168;-34
2022/09/29 08:43:57;;;;;;;4.40;2.60;;;;;;;;;;106478;1299;34130;-34
2022/09/29 08:46:28;;;;;;;4.50;2.70;;;;;;;;;;106525;1299;33485;-36
2022/09/29 08:49:00;;;;;;;4.50;2.60;;;;;;;;;;106585;1295;34088;-36
2022/09/29 08:51:32;;;;;;;4.20;2.50;;;;;;;;;;106578;1296;34591;-35
2022/09/29 08:54:02;;;;;;;4.10;2.60;;;;;;;;;;106592;1298;34221;-36
2022/09/29 08:56:33;;;;;;;4.50;2.60;;;;;;;;;;106466;1300;33536;-36
2022/09/29 08:59:04;;;;;;;4.60;2.40;;;;;;;;;;106525;1298;34468;-36
2022/09/29 09:01:39;;;;;;;4.70;2.80;;;;;;;;;;106507;1298;34234;-35
2022/09/29 09:04:29;;;;;;;4.70;2.80;;;;;;;;;;106452;1300;34549;-35
2022/09/29 09:07:02;;;;;;;4.50;2.90;;;;;;;;;;106561;1295;44504;-36
2022/09/29 09:09:50;;;;;;;4.00;2.50;;;;;;;;;;106648;1295;34095;-36
2022/09/29 09:12:33;;;;;;;4.30;2.50;;;;;;;;;;106626;1296;34207;-37
2022/09/29 09:15:14;;;;;;;6.20;2.50;;;;;;;;;;106561;1296;34361;-35
2022/09/29 09:17:53;;;;;;;4.50;2.60;;;;;;;;;;106470;1296;34130;-35
2022/09/29 09:20:27;;;;;;;4.30;2.60;;;;;;;;;;106151;1299;34192;-36
2022/09/29 09:22:58;;;;;;;4.30;2.40;;;;;;;;;;106243;1297;34124;-36
2022/09/29 09:25:30;;;;;;;4.20;2.40;;;;;;;;;;106451;1298;34137;-35
2022/09/29 09:28:03;;;;;;;3.70;2.60;;;;;;;;;;106585;1295;34123;-35
2022/09/29 09:30:35;;;;;;;3.90;2.40;;;;;;;;;;106515;1299;33782;-35
2022/09/29 09:33:07;;;;;;;3.90;2.40;;;;;;;;;;106499;1303;34174;-35
2022/09/29 09:35:40;;;;;;;3.90;2.40;;;;;;;;;;106547;1295;34306;-35
2022/09/29 09:38:13;;;;;;;4.00;2.70;;;;;;;;;;106211;1298;34339;-35
2022/09/29 09:40:44;;;;;;;4.30;2.40;;;;;;;;;;106414;1297;34490;-35
2022/09/29 09:43:19;;;;;;;3.60;2.40;;;;;;;;;;106488;1297;33753;-35
2022/09/29 09:45:51;;;;;;;4.10;2.60;;;;;;;;;;106487;1298;34677;-35
2022/09/29 09:48:26;;;;;;;3.70;2.30;;;;;;;;;;106628;1295;34274;-35
2022/09/29 09:50:57;;;;;;;3.80;2.40;;;;;;;;;;106514;1300;34105;-35
2022/09/29 09:53:33;;;;;;;3.90;2.10;;;;;;;;;;106611;1300;34072;-35
2022/09/29 09:56:07;;;;;;;4.00;2.60;;;;;;;;;;106552;1299;33421;-34
2022/09/29 09:58:48;;;;;;;4.50;2.40;;;;;;;;;;106445;1297;34106;-33
2022/09/29 10:01:17;;;;;;;4.10;2.30;;;;;;;;;;106392;1297;34089;-35
2022/09/29 10:03:46;;;;;;;4.60;2.40;;;;;;;;;;106429;1301;34204;-36
2022/09/29 10:06:15;;;;;;;3.90;2.50;;;;;;;;;;106470;1292;34157;-37
2022/09/29 10:08:45;;;;;;;4.90;2.70;;;;;;;;;;106583;1302;33460;-38
2022/09/29 10:11:21;;;;;;;3.80;2.50;;;;;;;;;;106545;1295;33778;-34
2022/09/29 10:13:57;;;;;;;4.20;2.70;;;;;;;;;;106590;1300;34405;-33
2022/09/29 10:16:29;;;;;;;4.40;2.60;;;;;;;;;;106519;1295;34038;-35
2022/09/29 10:18:58;;;;;;;4.00;2.50;;;;;;;;;;106372;1300;33686;-35
2022/09/29 10:21:39;;;;;;;4.10;2.90;;;;;;;;;;106418;1300;33076;-39
2022/09/29 10:24:20;;;;;;;4.30;3.00;;;;;;;;;;106441;1296;34266;-37
2022/09/29 10:26:50;;;;;;;3.80;2.70;;;;;;;;;;106469;1296;34440;-39
2022/09/29 10:29:23;;;;;;;4.80;2.70;;;;;;;;;;106620;1301;33709;-36
2022/09/29 10:32:04;;;;;;;4.60;2.90;;;;;;;;;;106604;1295;33982;-38
2022/09/29 10:34:34;;;;;;;4.50;2.80;;;;;;;;;;106583;1299;33452;-38
2022/09/29 10:37:06;;;;;;;4.90;2.70;;;;;;;;;;106574;1295;34846;-38
2022/09/29 10:39:41;;;;;;;4.20;3.00;;;;;;;;;;106543;1295;34152;-35
2022/09/29 10:42:21;;;;;;;4.30;2.70;;;;;;;;;;106564;1299;33480;-43
2022/09/29 10:44:52;;;;;;;4.00;2.90;;;;;;;;;;106513;1295;34071;-37
2022/09/29 10:47:22;;;;;;;4.30;3.00;;;;;;;;;;106564;1295;34542;-37
2022/09/29 10:50:05;;;;;;;4.10;2.80;;;;;;;;;;106558;1295;34120;-37
2022/09/29 10:52:34;;;;;;;4.30;2.80;;;;;;;;;;106569;1301;34050;-36
2022/09/29 10:55:04;;;;;;;4.40;3.00;;;;;;;;;;106461;1295;34098;-36
2022/09/29 10:57:36;;;;;;;4.70;3.30;;;;;;;;;;106474;1295;34574;-38
2022/09/29 11:00:07;;;;;;;4.60;3.30;;;;;;;;;;106387;1298;33094;-37
2022/09/29 11:02:39;;;;;;;4.20;2.90;;;;;;;;;;106354;1298;34079;-38
2022/09/29 11:05:16;;;;;;;4.20;3.20;;;;;;;;;;106416;1298;33604;-36
2022/09/29 11:07:48;;;;;;;4.40;3.30;;;;;;;;;;106359;1302;34535;-37
2022/09/29 11:10:29;;;;;;;4.50;3.00;;;;;;;;;;106408;1301;34236;-36
2022/09/29 11:12:59;;;;;;;4.40;3.50;;;;;;;;;;106557;1295;34086;-37
2022/09/29 11:15:38;;;;;;;4.30;3.30;;;;;;;;;;106575;1301;33993;-35
2022/09/29 11:18:17;;;;;;;4.30;2.90;;;;;;;;;;106495;1296;33498;-39
2022/09/29 11:20:49;;;;;;;5.10;3.70;;;;;;;;;;106614;1295;34180;-36
2022/09/29 11:23:26;;;;;;;4.60;3.20;;;;;;;;;;106630;1295;34763;-36
2022/09/29 11:26:06;;;;;;;5.20;3.40;;;;;;;;;;106630;1296;34130;-35
2022/09/29 11:28:42;;;;;;;4.50;3.20;;;;;;;;;;106553;1296;34116;-35
2022/09/29 11:31:20;;;;;;;4.40;3.20;;;;;;;;;;106559;1295;33209;-36
2022/09/29 11:33:53;;;;;;;4.40;3.20;;;;;;;;;;106456;1298;34495;-38
2022/09/29 11:36:31;;;;;;;4.40;3.30;;;;;;;;;;106607;1295;34174;-39
2022/09/29 11:39:08;;;;;;;4.20;3.20;;;;;;;;;;106388;1300;33678;-39
2022/09/29 11:41:44;;;;;;;4.50;3.30;;;;;;;;;;106240;1298;34091;-37
2022/09/29 11:44:23;;;;;;;4.40;3.10;;;;;;;;;;106238;1302;33691;-38
2022/09/29 11:47:03;;;;;;;4.60;3.40;;;;;;;;;;106440;1298;34985;-36
2022/09/29 11:49:43;;;;;;;4.20;3.00;;;;;;;;;;106414;1301;33976;-34
2022/09/29 11:52:21;;;;;;;4.10;2.90;;;;;;;;;;106478;1301;33671;-37
2022/09/29 11:55:00;;;;;;;4.50;3.20;;;;;;;;;;106527;1295;34332;-37
2022/09/29 11:57:37;;;;;;;4.20;3.30;;;;;;;;;;106524;1301;33620;-36
2022/09/29 12:00:09;;;;;;;4.50;3.50;;;;;;;;;;106443;1298;33996;-36
2022/09/29 12:02:55;;;;;;;4.50;3.10;;;;;;;;;;106516;1296;34151;-36
2022/09/29 12:05:26;;;;;;;4.60;3.40;;;;;;;;;;106600;1295;33667;-38
2022/09/29 12:08:04;;;;;;;4.50;3.40;;;;;;;;;;106600;1295;34217;-38
2022/09/29 12:10:37;;;;;;;4.90;4.00;;;;;;;;;;106687;1300;33662;-38
2022/09/29 12:13:05;;;;;;;;;;;;;;;;;;106593;1295;34541;-38
2022/09/29 12:15:42;;;;;;;4.50;3.60;;;;;;;;;;106534;1300;34010;-37
2022/09/29 12:18:14;;;;;;;4.70;3.60;;;;;;;;;;106474;1295;34118;-38
2022/09/29 12:20:45;;;;;;;4.40;3.50;;;;;;;;;;106586;1295;34226;-37
2022/09/29 12:23:16;;;;;;;4.70;3.50;;;;;;;;;;106444;1297;33601;-38
2022/09/29 12:25:51;;;;;;;4.90;3.50;;;;;;;;;;106595;1301;33287;-39
2022/09/29 12:28:29;;;;;;;4.40;3.50;;;;;;;;;;106612;1296;33557;-40
2022/09/29 12:31:04;;;;;;;5.20;3.80;;;;;;;;;;106594;1300;34013;-40
2022/09/29 12:33:37;;;;;;;5.40;3.60;;;;;;;;;;106411;1298;34174;-39
2022/09/29 12:39:09;;;;;;;5.00;3.20;;;;;;;;;;106444;1298;34108;-37
2022/09/29 12:41:40;;;;;;;5.20;3.50;;;;;;;;;;106523;1300;33488;-40
2022/09/29 12:44:13;;;;;;;4.90;3.50;;;;;;;;;;106467;1298;33173;-41
2022/09/29 12:46:46;;;;;;;5.00;3.20;;;;;;;;;;106544;1295;34639;-36
2022/09/29 12:49:19;;;;;;;4.70;3.20;;;;;;;;;;106477;1296;34128;-36
2022/09/29 12:51:49;;;;;;;4.80;3.40;;;;;;;;;;106570;1295;34111;-36
2022/09/29 12:54:22;;;;;;;4.90;3.60;;;;;;;;;;106611;1299;33588;-36
2022/09/29 12:56:54;;;;;;;4.30;3.10;;;;;;;;;;106610;1298;34945;-38
2022/09/29 12:59:29;;;;;;;4.30;3.10;;;;;;;;;;106426;1300;33755;-38
2022/09/29 13:01:59;;;;;;;4.60;3.20;;;;;;;;;;106469;1298;33620;-39
2022/09/29 13:04:40;;;;;;;4.60;3.40;;;;;;;;;;106465;1296;34595;-38
2022/09/29 13:07:21;;;;;;;4.90;3.40;;;;;;;;;;106475;1300;33811;-38
2022/09/29 13:10:07;;;;;;;4.70;3.20;;;;;;;;;;106401;1301;33610;-37
2022/09/29 13:12:44;;;;;;;4.80;3.50;;;;;;;;;;106588;1295;34195;-39
2022/09/29 13:15:23;;;;;;;5.00;3.40;;;;;;;;;;106593;1295;34103;-39
2022/09/29 13:18:07;;;;;;;4.30;3.30;;;;;;;;;;106621;1300;34254;-39
2022/09/29 13:20:42;;;;;;;4.50;3.20;;;;;;;;;;106535;1295;34713;-40
2022/09/29 13:23:24;;;;;;;4.60;3.40;;;;;;;;;;106486;1298;34233;-37
2022/09/29 13:26:00;;;;;;;5.50;3.60;;;;;;;;;;106452;1303;33178;-38
2022/09/29 13:28:32;;;;;;;8.90;3.80;;;;;;;;;;106477;1300;34107;-39
2022/09/29 13:31:05;;;;;;;5.30;3.50;;;;;;;;;;106504;1297;33128;-38
2022/09/29 13:33:35;;;;;;;5.00;3.60;;;;;;;;;;106436;1297;33617;-38
2022/09/29 13:36:05;;;;;;;5.10;3.60;;;;;;;;;;106475;1296;33223;-38
2022/09/29 13:38:39;;;;;;;5.30;3.40;;;;;;;;;;106547;1301;33676;-38
2022/09/29 13:41:14;;;;;;;4.80;3.40;;;;;;;;;;106438;1298;33460;-38
2022/09/29 13:44:02;;;;;;;5.00;3.40;;;;;;;;;;106602;1299;33772;-38
2022/09/29 13:46:39;;;;;;;5.00;3.60;;;;;;;;;;106642;1295;34285;-38
2022/09/29 13:49:27;;;;;;;4.70;3.70;;;;;;;;;;106619;1299;33709;-38
2022/09/29 13:51:56;;;;;;;4.70;3.30;;;;;;;;;;106395;1297;34073;-36
2022/09/29 13:54:27;;;;;;;4.90;3.70;;;;;;;;;;106505;1298;34118;-37
2022/09/29 13:57:08;;;;;;;5.40;4.20;;;;;;;;;;106491;1298;33584;-36
2022/09/29 13:59:38;;;;;;;5.70;3.70;;;;;;;;;;106494;1298;33587;-37
2022/09/29 14:02:23;;;;;;;5.10;3.80;;;;;;;;;;106533;1295;33296;-36
2022/09/29 14:04:57;;;;;;;4.80;3.60;;;;;;;;;;106481;1295;166454;-37
2022/09/29 14:07:37;;;;;;;4.40;3.30;;;;;;;;;;106603;1299;33583;-37
2022/09/29 14:10:14;;;;;;;4.20;3.30;;;;;;;;;;106602;1295;33131;-37
2022/09/29 14:12:47;;;;;;;5.30;3.70;;;;;;;;;;106520;1295;34200;-37
2022/09/29 14:15:17;;;;;;;5.30;3.50;;;;;;;;;;106554;1295;34133;-37
2022/09/29 14:17:50;;;;;;;5.10;3.80;;;;;;;;;;106493;1298;34079;-37
2022/09/29 14:20:24;;;;;;;4.60;3.70;;;;;;;;;;106524;1301;33591;-37
2022/09/29 14:22:57;;;;;;;4.80;3.60;;;;;;;;;;106537;1295;34087;-37
2022/09/29 14:25:31;;;;;;;5.00;3.80;;;;;;;;;;106610;1300;33264;-36
2022/09/29 14:28:02;;;;;;;4.60;3.70;;;;;;;;;;106600;1295;33801;-37
2022/09/29 14:30:40;;;;;;;5.00;3.90;;;;;;;;;;106598;1299;33725;-37
2022/09/29 14:33:12;;;;;;;5.10;3.70;;;;;;;;;;106471;1295;34089;-37
2022/09/29 14:35:43;;;;;;;5.20;3.90;;;;;;;;;;106592;1298;33671;-37
2022/09/29 14:38:15;;;;;;;5.40;3.60;;;;;;;;;;106472;1296;34203;-37
2022/09/29 14:40:55;;;;;;;5.30;4.00;;;;;;;;;;106624;1296;33144;-37
2022/09/29 14:43:26;;;;;;;5.00;3.80;;;;;;;;;;106604;1295;34217;-37
2022/09/29 14:51:59;;;;;;;4.80;3.50;;;;;;;;;;106606;1295;34680;-39
2022/09/29 14:54:35;;;;;;;5.10;3.80;;;;;;;;;;106473;1296;34168;-38
2022/09/29 14:57:09;;;;;;;4.50;3.70;;;;;;;;;;106506;1297;33618;-38
2022/09/29 14:59:53;;;;;;;4.50;3.60;;;;;;;;;;106493;1298;34188;-38
2022/09/29 15:02:25;;;;;;;7.30;4.40;;;;;;;;;;106477;1296;34741;-38
2022/09/29 15:04:55;;;;;;;5.90;4.40;;;;;;;;;;106461;1298;34191;-38
2022/09/29 15:07:25;;;;;;;5.50;3.90;;;;;;;;;;106642;1295;35940;-37
2022/09/29 15:09:55;;;;;;;5.20;4.20;;;;;;;;;;106480;1297;33557;-38
2022/09/29 15:12:30;;;;;;;5.40;4.00;;;;;;;;;;106575;1295;34437;-38